Weather observations for the past three days for
Grand Junction Regional Airport
Imperial (Metric)
Date Time (mdt) Wind (mph) Vis. (mi.) Weather Sky Cond. Temperature (ºF) Relative Humidity Wind Chill (°F) Heat Index (°F) Pressure Precipitation (in)
Air Dwpt 6 hour altimeter (in) sea level (mb) 1 hr 3 hr 6 hr
Max. Min.
10 07:53 W 6 10.00 Fair CLR 57 26.1 30% 30.21 1017.6
10 06:53 N 5 10.00 Fair CLR 50 24.1 36% 49 30.19 1017.0
10 05:53 Calm 10.00 Fair CLR 48.9 21.9 64 48.9 35% 30.17 1016.2
10 04:53 SW 5 10.00 Fair CLR 54 23 30% 30.15 1015.0
10 03:53 N 7 10.00 Fair CLR 59 23 25% 30.13 1014.2
10 02:53 NW 8 10.00 Fair CLR 62.1 24.1 23% 30.12 1013.5
10 01:53 NW 20 G 28 10.00 Fair CLR 62.1 26.1 25% 30.12 1013.5
10 00:53 NW 10 G 25 10.00 Fair CLR 63 26.1 25% 30.11 1013.3
09 23:53 N 13 10.00 Fair CLR 64 23 82 61 21% 30.07 1012.0
09 22:53 N 18 G 24 10.00 Fair CLR 66.9 12.9 12% 30.03 1010.7
09 21:53 W 8 10.00 Fair CLR 63 9 12% 29.99 1009.9
09 20:53 NW 7 10.00 Fair CLR 69.1 5 8% 29.95 1008.4
09 19:53 SW 7 10.00 Fair CLR 73.9 8.1 8% 29.91 1007.2
09 17:53 NW 14 10.00 Fair CLR 81 5 82.9 75.9 5% 79 29.9 1006.9
09 16:53 W 12 G 22 10.00 Fair CLR 82 10.9 7% 80 29.91 1006.4
09 15:53 W 8 10.00 Fair CLR 81 17.1 9% 79 29.93 1007.1
09 14:53 W 13 G 20 10.00 Fair CLR 80.1 19 10% 78 29.95 1007.8
09 13:53 W 13 G 22 10.00 Fair CLR 80.1 19 10% 78 29.97 1008.0
09 12:53 Vrbl 6 G 20 10.00 Fair CLR 77 21 12% 76 29.99 1009.3
09 11:53 W 10 10.00 Fair CLR 78.1 26.1 78.1 50 15% 77 30.01 1009.8
09 10:53 Vrbl 6 10.00 Fair CLR 72 26.1 18% 30.02 1010.1
09 09:53 S 5 10.00 Fair CLR 69.1 28 22% 30.03 1010.3
09 08:53 SE 7 10.00 Fair CLR 63 30.9 30% 30.03 1011.0
09 07:53 E 8 10.00 Fair CLR 57.9 30 35% 30.03 1011.1
09 06:53 Calm 10.00 Fair CLR 53.1 26.1 35% 30.01 1010.6
09 05:53 NE 8 10.00 Fair CLR 51.1 25 64.9 50 36% 29.98 1009.6
09 04:53 E 7 10.00 Fair CLR 55.9 23 28% 29.96 1008.3
09 03:53 NE 9 10.00 Fair CLR 57 23 27% 29.97 1008.8
09 02:53 Calm 10.00 Fair CLR 60.1 21.9 23% 29.96 1008.2
09 01:53 NW 5 10.00 Fair CLR 64 23 21% 29.96 1007.9
09 00:53 NW 5 10.00 Fair CLR 62.1 26.1 25% 29.95 1007.8
08 23:53 W 8 10.00 Fair CLR 61 28 81 61 29% 29.95 1008.3
08 22:53 NW 10 10.00 Fair CLR 70 23 17% 29.93 1007.1
08 21:53 SW 7 10.00 Fair CLR 73 24.1 16% 29.9 1006.3
08 20:53 Calm 10.00 Fair CLR 71.1 23 16% 29.88 1005.9
08 19:53 Calm 10.00 Fair CLR 75.9 25 15% 76 29.86 1005.5
08 18:53 W 5 10.00 Fair CLR 79 23 12% 78 29.87 1006.0
08 17:53 W 10 10.00 Fair CLR 81 21.9 82 72 11% 79 29.88 1006.3
08 16:53 W 10 G 21 10.00 Fair CLR 81 21.9 11% 79 29.89 1006.6
08 15:53 W 10 G 18 10.00 Fair CLR 81 23 12% 79 29.92 1007.2
08 14:53 W 15 G 22 10.00 Fair CLR 80.1 24.1 13% 78 29.94 1008.1
08 13:53 W 13 G 24 10.00 Fair CLR 78.1 25 14% 77 29.95 1008.6
08 12:53 W 14 G 18 10.00 Fair CLR 78.1 25 14% 77 29.97 1008.9
08 11:53 W 9 10.00 Fair CLR 73 27 73 46 18% 29.99 1009.9
08 10:53 Calm 10.00 Fair CLR 70 28.9 22% 30.01 1010.5
08 09:53 SE 5 10.00 Fair CLR 64.9 30 27% 30.02 1011.2
08 08:53 SE 7 10.00 Fair CLR 62.1 33.1 34% 30.03 1011.3
08 07:53 SE 8 10.00 Fair CLR 55 33.1 44% 30.03 1011.7
08 06:53 Calm 10.00 Fair CLR 48.9 30 48% 30.01 1011.4
08 05:53 E 6 10.00 Fair CLR 46 28 59 46 50% 44 29.99 1011.2
08 04:53 NE 3 10.00 A Few Clouds FEW110 48 28 46% 29.99 1011.0
08 03:53 E 6 10.00 Mostly Cloudy BKN120 53.1 30 41% 29.98 1010.2
08 02:53 Calm 10.00 A Few Clouds FEW120 48.9 26.1 41% 29.98 1011.1
08 01:53 E 3 10.00 Fair CLR 54 27 35% 29.99 1010.9
08 00:53 NE 7 10.00 Fair CLR 57.9 27 31% 29.98 1010.7
07 23:53 NE 7 10.00 Partly Cloudy FEW100 SCT120 59 27 73 59 29% 29.98 1010.6
07 22:53 Calm 10.00 Fair CLR 61 26.1 26% 29.98 1010.8
07 21:53 NE 7 10.00 Mostly Cloudy BKN120 63 26.1 25% 29.98 1010.9
07 20:53 N 9 10.00 Partly Cloudy SCT120 66.9 25 20% 29.97 1010.6
07 19:53 N 9 10.00 Partly Cloudy FEW075 SCT100 SCT120 70 25 18% 29.95 1010.2
07 18:53 NW 7 10.00 Fair CLR 72 24.1 17% 29.96 1010.5
07 17:53 NW 9 G 18 10.00 Fair CLR 72 24.1 73 59 17% 29.97 1011.0
07 16:53 W 10 10.00 Fair CLR 72 24.1 17% 29.98 1011.1
07 15:53 W 10 10.00 Fair CLR 70 24.1 18% 30.01 1012.5
07 14:53 W 7 G 21 10.00 Fair CLR 66.9 23 19% 30.05 1013.8
07 13:53 NW 6 10.00 Fair CLR 66 21.9 19% 30.08 1015.2
07 12:53 SE 5 10.00 Fair CLR 62.1 19.9 20% 30.12 1016.6
07 11:53 Calm 10.00 Fair CLR 59 19 60.1 37 21% 30.15 1017.9
07 10:53 Vrbl 3 10.00 Fair CLR 55.9 19.9 24% 30.17 1018.5
07 09:53 SE 9 10.00 Fair CLR 53.1 21 28% 30.19 1019.6
07 08:53 E 10 10.00 Fair CLR 48.9 21 33% 45 30.21 1020.4
Date Time (mdt) Wind (mph) Vis. (mi.) Weather Sky Cond. Air Dwpt Max. Min. Relative Humidity Wind Chill (°F) Heat Index (°F) altimeter (in) sea level (mb) 1 hr 3 hr 6 hr
6 hour
Temperature (ºF) Pressure Precipitation (in)